createdAt,value
2017-10-30T00:00:09.642Z,96834.95
2017-10-30T00:02:35.756Z,96827.98
2017-10-30T00:05:02.002Z,96843.38
2017-10-30T00:07:28.093Z,96841.52
2017-10-30T00:09:54.203Z,96854.73
2017-10-30T00:12:20.302Z,96852.78
2017-10-30T00:14:46.441Z,96853.47
2017-10-30T00:17:12.550Z,96847.53
2017-10-30T00:19:38.647Z,96846.73
2017-10-30T00:22:04.802Z,96843.89
2017-10-30T00:24:30.948Z,96847.40
2017-10-30T00:26:57.003Z,96856.77
2017-10-30T00:29:23.095Z,96866.03
2017-10-30T00:31:49.233Z,96860.33
2017-10-30T00:34:15.318Z,96861.20
2017-10-30T00:36:41.415Z,96871.03
2017-10-30T00:39:07.531Z,96871.95
2017-10-30T00:41:33.690Z,96869.86
2017-10-30T00:43:59.752Z,96867.91
2017-10-30T00:46:25.868Z,96874.06
2017-10-30T00:48:51.955Z,96876.33
2017-10-30T00:51:18.062Z,96876.02
2017-10-30T00:53:44.162Z,96875.60
2017-10-30T00:56:10.246Z,96888.55
2017-10-30T00:58:36.315Z,96878.83
2017-10-30T01:01:02.384Z,96876.58
2017-10-30T01:03:28.516Z,96869.16
2017-10-30T01:05:54.599Z,96874.14
2017-10-30T01:08:20.807Z,96876.84
2017-10-30T01:10:46.878Z,96876.03
2017-10-30T01:13:12.977Z,96868.11
2017-10-30T01:15:39.039Z,96866.95
2017-10-30T01:18:05.175Z,96861.05
2017-10-30T01:20:31.307Z,96871.30
2017-10-30T01:22:57.405Z,96868.13
2017-10-30T01:25:23.524Z,96864.34
2017-10-30T01:27:49.589Z,96864.34
2017-10-30T01:30:15.618Z,96869.58
2017-10-30T01:32:41.751Z,96875.98
2017-10-30T01:35:07.844Z,96873.25
2017-10-30T01:37:33.891Z,96870.23
2017-10-30T01:39:59.911Z,96868.77
2017-10-30T01:42:26.007Z,96871.58
2017-10-30T01:44:52.139Z,96872.24
2017-10-30T01:47:18.312Z,96877.38
2017-10-30T01:49:44.403Z,96874.11
2017-10-30T01:52:10.515Z,96883.36
2017-10-30T01:54:36.584Z,96883.89
2017-10-30T01:57:02.666Z,96882.09
2017-10-30T01:59:28.691Z,96883.11
2017-10-30T02:01:54.743Z,96881.63
2017-10-30T02:04:20.900Z,96882.02
2017-10-30T02:06:47.018Z,96885.59
2017-10-30T02:09:13.098Z,96889.15
2017-10-30T02:11:39.155Z,96891.28
2017-10-30T02:14:05.300Z,96896.49
2017-10-30T02:16:31.382Z,96892.48
2017-10-30T02:18:57.482Z,96901.06
2017-10-30T02:21:23.558Z,96903.39
2017-10-30T02:23:49.675Z,96899.27
2017-10-30T02:26:15.710Z,96908.03
2017-10-30T02:28:41.829Z,96910.69
2017-10-30T02:31:07.910Z,96906.01
2017-10-30T02:33:34.003Z,96911.58
2017-10-30T02:36:00.082Z,96910.46
2017-10-30T02:38:26.207Z,96906.72
2017-10-30T02:40:52.235Z,96900.73
2017-10-30T02:43:18.359Z,96913.70
2017-10-30T02:45:44.407Z,96916.62
2017-10-30T02:48:10.484Z,96922.02
2017-10-30T02:50:36.551Z,96919.27
2017-10-30T02:53:02.670Z,96920.13
2017-10-30T02:55:28.707Z,96928.16
2017-10-30T02:57:54.783Z,96927.34
2017-10-30T03:00:24.700Z,96940.47
2017-10-30T03:02:50.751Z,96930.04
2017-10-30T03:05:16.907Z,96935.23
2017-10-30T03:07:42.973Z,96933.16
2017-10-30T03:10:09.046Z,96931.92
2017-10-30T03:12:35.127Z,96934.41
2017-10-30T03:15:01.130Z,96928.77
2017-10-30T03:17:27.273Z,96927.67
2017-10-30T03:19:53.359Z,96922.59
2017-10-30T03:22:19.439Z,96927.03
2017-10-30T03:24:45.520Z,96939.64
2017-10-30T03:27:11.634Z,96941.50
2017-10-30T03:29:37.751Z,96943.80
2017-10-30T03:32:03.875Z,96939.34
2017-10-30T03:34:29.958Z,96947.79
2017-10-30T03:36:56.047Z,96941.47
2017-10-30T03:39:22.206Z,96944.33
2017-10-30T03:41:48.325Z,96948.00
2017-10-30T03:44:14.407Z,96953.75
2017-10-30T03:46:40.518Z,96948.08
2017-10-30T03:49:06.614Z,96956.78
2017-10-30T03:51:32.701Z,96948.00
2017-10-30T03:53:58.786Z,96948.12
2017-10-30T03:56:24.835Z,96954.38
2017-10-30T03:58:50.947Z,96962.23
2017-10-30T04:01:17.086Z,96966.91
2017-10-30T04:03:43.187Z,96966.06
2017-10-30T04:06:09.254Z,96959.33
2017-10-30T04:08:35.368Z,96959.75
2017-10-30T04:11:01.491Z,96966.76
2017-10-30T04:13:27.655Z,96970.19
2017-10-30T04:15:53.774Z,96963.17
2017-10-30T04:18:19.852Z,96977.25
2017-10-30T04:20:45.891Z,96977.75
2017-10-30T04:23:11.998Z,96978.14
2017-10-30T04:25:38.091Z,96993.83
2017-10-30T04:28:04.259Z,96986.25
2017-10-30T04:30:30.389Z,96988.70
2017-10-30T04:32:56.630Z,96992.82
2017-10-30T04:35:22.694Z,96986.31
2017-10-30T04:37:48.760Z,97002.51
2017-10-30T04:40:14.895Z,97002.63
2017-10-30T04:42:40.922Z,97004.22
2017-10-30T04:45:07.041Z,97006.95
2017-10-30T04:47:33.178Z,97004.77
2017-10-30T04:49:59.275Z,97002.02
2017-10-30T04:52:25.382Z,97006.72
2017-10-30T04:54:51.522Z,97012.05
2017-10-30T04:57:17.594Z,97012.08
2017-10-30T04:59:43.662Z,97016.42
2017-10-30T05:02:09.763Z,97011.00
2017-10-30T05:04:35.837Z,97013.20
2017-10-30T05:07:01.948Z,97015.16
2017-10-30T05:09:28.011Z,97023.34
2017-10-30T05:11:54.404Z,97008.27
2017-10-30T05:14:20.479Z,97016.67
2017-10-30T05:16:46.572Z,97016.42
2017-10-30T05:19:12.567Z,97013.17
2017-10-30T05:21:38.936Z,97021.57
2017-10-30T05:24:05.032Z,97023.38
2017-10-30T05:26:31.110Z,97018.94
2017-10-30T05:28:57.158Z,97027.95
2017-10-30T05:31:23.261Z,97029.11
2017-10-30T05:33:49.379Z,97035.84
2017-10-30T05:36:15.481Z,97036.48
2017-10-30T05:38:41.562Z,97042.84
2017-10-30T05:41:07.628Z,97045.75
2017-10-30T05:43:33.719Z,97049.47
2017-10-30T05:45:59.830Z,97053.98
2017-10-30T05:48:25.928Z,97063.44
2017-10-30T05:50:52.015Z,97061.59
2017-10-30T05:53:18.102Z,97062.64
2017-10-30T05:55:44.171Z,97063.55
2017-10-30T05:58:10.203Z,97062.52
2017-10-30T06:00:36.320Z,97065.33
2017-10-30T06:03:02.416Z,97067.55
2017-10-30T06:05:28.511Z,97082.70
2017-10-30T06:07:54.598Z,97078.66
2017-10-30T06:10:20.822Z,97089.01
2017-10-30T06:12:46.879Z,97082.07
2017-10-30T06:15:13.023Z,97095.93
2017-10-30T06:17:39.114Z,97101.84
2017-10-30T06:20:05.166Z,97093.19
2017-10-30T06:22:31.262Z,97103.44
2017-10-30T06:24:57.338Z,97114.66
2017-10-30T06:27:23.460Z,97108.51
2017-10-30T06:29:49.510Z,97114.39
2017-10-30T06:32:15.638Z,97115.95
2017-10-30T06:34:41.723Z,97121.42
2017-10-30T06:37:07.806Z,97123.66
2017-10-30T06:39:34.263Z,97130.86
2017-10-30T06:42:00.415Z,97142.51
2017-10-30T06:44:26.547Z,97148.22
2017-10-30T06:46:52.643Z,97147.72
2017-10-30T06:49:18.747Z,97152.82
2017-10-30T06:51:44.812Z,97152.93
2017-10-30T06:54:10.946Z,97151.52
2017-10-30T06:56:37.014Z,97155.16
2017-10-30T06:59:03.083Z,97167.34
2017-10-30T07:01:29.170Z,97171.17
2017-10-30T07:03:55.257Z,97175.09
2017-10-30T07:06:21.364Z,97170.59
2017-10-30T07:08:47.426Z,97174.38
2017-10-30T07:11:13.547Z,97178.00
2017-10-30T07:13:39.703Z,97186.37
2017-10-30T07:16:05.747Z,97188.39
2017-10-30T07:18:31.842Z,97186.06
2017-10-30T07:20:57.870Z,97191.91
2017-10-30T07:23:24.027Z,97186.00
2017-10-30T07:25:50.120Z,97186.30
2017-10-30T07:28:16.271Z,97195.45
2017-10-30T07:30:42.339Z,97188.55
2017-10-30T07:33:08.430Z,97190.79
2017-10-30T07:35:34.539Z,97190.05
2017-10-30T07:38:00.647Z,97189.25
2017-10-30T07:40:26.748Z,97196.66
2017-10-30T07:42:52.791Z,97183.97
2017-10-30T07:45:18.922Z,97192.23
2017-10-30T07:47:44.995Z,97199.05
2017-10-30T07:50:11.080Z,97204.86
2017-10-30T07:52:37.114Z,97203.88
2017-10-30T07:55:03.202Z,97204.93
2017-10-30T07:57:29.254Z,97204.04
2017-10-30T07:59:55.315Z,97209.28
2017-10-30T08:02:21.362Z,97214.16
2017-10-30T08:04:47.447Z,97217.00
2017-10-30T08:07:13.550Z,97216.55
2017-10-30T08:09:39.630Z,97218.45
2017-10-30T08:12:05.723Z,97218.80
2017-10-30T08:14:31.770Z,97227.28
2017-10-30T08:16:57.868Z,97229.63
2017-10-30T08:19:23.926Z,97240.02
2017-10-30T08:21:50.006Z,97237.94
2017-10-30T08:24:16.160Z,97232.20
2017-10-30T08:26:42.335Z,97244.69
2017-10-30T08:29:08.427Z,97238.53
2017-10-30T08:31:34.496Z,97245.59
2017-10-30T08:34:00.606Z,97246.59
2017-10-30T08:36:26.683Z,97243.66
2017-10-30T08:38:52.746Z,97251.37
2017-10-30T08:41:18.772Z,97250.90
2017-10-30T08:43:44.869Z,97254.30
2017-10-30T08:46:10.924Z,97251.58
2017-10-30T08:48:37.022Z,97260.64
2017-10-30T08:51:03.047Z,97262.45
2017-10-30T08:53:29.214Z,97270.01
2017-10-30T08:55:55.290Z,97262.44
2017-10-30T08:58:21.370Z,97266.00
2017-10-30T09:00:47.490Z,97265.77
2017-10-30T09:03:13.519Z,97269.99
2017-10-30T09:05:39.596Z,97269.02
2017-10-30T09:08:05.650Z,97271.72
2017-10-30T09:10:31.770Z,97281.09
2017-10-30T09:12:57.820Z,97277.32
2017-10-30T09:15:23.968Z,97281.67
2017-10-30T09:17:50.013Z,97282.33
2017-10-30T09:20:16.087Z,97267.20
2017-10-30T09:22:42.170Z,97276.88
2017-10-30T09:25:08.246Z,97279.16
2017-10-30T09:27:34.344Z,97283.55
2017-10-30T09:30:00.563Z,97292.59
2017-10-30T09:32:26.676Z,97278.58
2017-10-30T09:34:52.766Z,97281.75
2017-10-30T09:37:18.816Z,97280.55
2017-10-30T09:39:44.886Z,97292.94
2017-10-30T09:42:10.922Z,97295.48
2017-10-30T09:44:36.985Z,97300.03
2017-10-30T09:47:03.082Z,97294.47
2017-10-30T09:49:29.159Z,97301.28
2017-10-30T09:51:55.256Z,97305.09
2017-10-30T09:54:21.348Z,97315.97
2017-10-30T09:56:47.456Z,97302.19
2017-10-30T09:59:13.587Z,97305.85
2017-10-30T10:01:39.623Z,97310.30
2017-10-30T10:04:05.748Z,97312.03
2017-10-30T10:06:31.787Z,97318.41
2017-10-30T10:08:57.911Z,97329.52
2017-10-30T10:11:24.102Z,97321.32
2017-10-30T10:13:50.189Z,97337.95
2017-10-30T10:16:16.291Z,97357.88
2017-10-30T10:18:42.325Z,97375.95
2017-10-30T10:21:08.415Z,97396.98
2017-10-30T10:23:34.486Z,97370.13
2017-10-30T10:26:00.636Z,97364.69
2017-10-30T10:28:26.711Z,97363.37
2017-10-30T10:30:52.755Z,97363.48
2017-10-30T10:33:18.828Z,97364.97
2017-10-30T10:35:44.926Z,97361.28
2017-10-30T10:38:11.075Z,97357.89
2017-10-30T10:40:37.562Z,97346.97
2017-10-30T10:43:03.633Z,97346.03
2017-10-30T10:45:29.737Z,97344.62
2017-10-30T10:47:55.775Z,97347.56
2017-10-30T10:50:21.878Z,97347.00
2017-10-30T10:52:48.138Z,97343.22
2017-10-30T10:55:14.342Z,97340.61
2017-10-30T10:57:40.399Z,97342.45
2017-10-30T11:00:06.519Z,97346.52
2017-10-30T11:02:32.583Z,97347.67
2017-10-30T11:04:58.822Z,97348.32
2017-10-30T11:07:24.942Z,97339.96
2017-10-30T11:09:51.010Z,97348.06
2017-10-30T11:12:17.147Z,97346.39
2017-10-30T11:14:43.276Z,97352.09
2017-10-30T11:17:09.335Z,97344.91
2017-10-30T11:19:35.343Z,97353.90
2017-10-30T11:22:01.426Z,97357.42
2017-10-30T11:24:27.544Z,97354.05
2017-10-30T11:26:53.637Z,97356.77
2017-10-30T11:29:20.113Z,97357.23
2017-10-30T11:31:46.182Z,97361.83
2017-10-30T11:34:12.298Z,97357.77
2017-10-30T11:36:38.393Z,97360.72
2017-10-30T11:39:04.509Z,97359.44
2017-10-30T11:41:30.627Z,97356.91
2017-10-30T11:43:56.700Z,97352.91
2017-10-30T11:46:22.810Z,97366.53
2017-10-30T11:48:48.916Z,97366.48
2017-10-30T11:51:15.016Z,97358.58
2017-10-30T11:53:41.122Z,97353.83
2017-10-30T11:56:07.131Z,97360.46
2017-10-30T11:58:33.218Z,97377.60
2017-10-30T12:00:59.373Z,97378.08
2017-10-30T12:03:25.510Z,97383.42
2017-10-30T12:05:51.926Z,97376.42
2017-10-30T12:08:17.982Z,97374.58
2017-10-30T12:10:44.087Z,97377.50
2017-10-30T12:13:10.195Z,97379.13
2017-10-30T12:15:36.275Z,97381.05
2017-10-30T12:18:02.330Z,97377.53
2017-10-30T12:20:28.412Z,97379.78
2017-10-30T12:22:54.490Z,97384.52
2017-10-30T12:25:20.655Z,97385.45
2017-10-30T12:27:46.770Z,97386.05
2017-10-30T12:30:13.285Z,97382.53
2017-10-30T12:32:39.362Z,97377.95
2017-10-30T12:35:05.522Z,97367.30
2017-10-30T12:37:31.658Z,97374.86
2017-10-30T12:39:57.766Z,97363.87
2017-10-30T12:42:23.935Z,97363.92
2017-10-30T12:44:50.142Z,97360.00
2017-10-30T12:47:16.223Z,97366.75
2017-10-30T12:49:42.341Z,97372.94
2017-10-30T12:52:08.470Z,97369.20
2017-10-30T12:54:34.589Z,97377.23
2017-10-30T12:57:00.634Z,97382.73
2017-10-30T12:59:27.571Z,97383.23
2017-10-30T13:01:53.714Z,97394.25
2017-10-30T13:04:19.800Z,97401.09
2017-10-30T13:06:46.238Z,97418.56
2017-10-30T13:09:12.406Z,97400.70
2017-10-30T13:11:38.542Z,97402.73
2017-10-30T13:14:04.809Z,97397.05
2017-10-30T13:16:30.936Z,97393.30
2017-10-30T13:18:57.023Z,97393.89
2017-10-30T13:21:23.134Z,97387.87
2017-10-30T13:23:49.266Z,97386.98
2017-10-30T13:26:15.368Z,97381.03
2017-10-30T13:28:41.722Z,97387.19
2017-10-30T13:31:07.814Z,97391.67
2017-10-30T13:33:33.826Z,97395.45
2017-10-30T13:35:59.925Z,97396.50
2017-10-30T13:38:26.031Z,97396.19
2017-10-30T13:40:52.144Z,97402.55
2017-10-30T13:43:18.243Z,97406.02
2017-10-30T13:45:44.408Z,97415.74
2017-10-30T13:48:10.501Z,97419.27
2017-10-30T13:50:36.631Z,97428.86
2017-10-30T13:53:02.844Z,97453.48
2017-10-30T13:55:29.231Z,97459.19
2017-10-30T13:57:55.311Z,97464.30
2017-10-30T14:00:21.399Z,97481.98
2017-10-30T14:02:47.502Z,97464.67
2017-10-30T14:05:13.575Z,97451.15
2017-10-30T14:07:39.696Z,97452.17
2017-10-30T14:10:05.839Z,97447.81
2017-10-30T14:12:31.923Z,97445.58
2017-10-30T14:14:58.031Z,97443.63
2017-10-30T14:17:24.080Z,97455.86
2017-10-30T14:19:50.455Z,97452.61
2017-10-30T14:22:16.526Z,97455.13
2017-10-30T14:24:42.639Z,97456.62
2017-10-30T14:27:08.931Z,97453.64
2017-10-30T14:29:34.975Z,97443.94
2017-10-30T14:32:01.082Z,97444.88
2017-10-30T14:34:27.175Z,97446.20
2017-10-30T14:36:53.246Z,97447.66
2017-10-30T14:39:19.332Z,97454.02
2017-10-30T14:41:45.356Z,97452.06
2017-10-30T14:44:11.497Z,97458.91
2017-10-30T14:46:37.542Z,97464.23
2017-10-30T14:49:03.613Z,97463.81
2017-10-30T14:51:29.738Z,97465.73
2017-10-30T14:53:55.770Z,97464.78
2017-10-30T14:56:21.850Z,97462.83
2017-10-30T14:58:47.962Z,97465.77
2017-10-30T15:01:14.055Z,97462.23
2017-10-30T15:03:40.081Z,97464.91
2017-10-30T15:06:06.207Z,97474.10
2017-10-30T15:08:32.270Z,97469.08
2017-10-30T15:10:58.362Z,97481.16
2017-10-30T15:13:24.541Z,97477.91
2017-10-30T15:15:50.778Z,97469.39
2017-10-30T15:18:16.913Z,97466.38
2017-10-30T15:20:42.975Z,97471.25
2017-10-30T15:23:09.090Z,97477.25
2017-10-30T15:25:35.202Z,97474.73
2017-10-30T15:28:01.348Z,97482.55
2017-10-30T15:30:27.741Z,97486.52
2017-10-30T15:32:53.883Z,97488.64
2017-10-30T15:35:19.972Z,97483.61
2017-10-30T15:37:46.065Z,97486.15
2017-10-30T15:40:12.226Z,97490.37
2017-10-30T15:42:38.511Z,97492.93
2017-10-30T15:45:04.698Z,97497.12
2017-10-30T15:47:30.719Z,97494.77
2017-10-30T15:49:56.910Z,97497.67
2017-10-30T15:52:22.951Z,97501.48
2017-10-30T15:54:49.056Z,97505.17
2017-10-30T15:57:15.146Z,97505.31
2017-10-30T15:59:41.198Z,97507.01
2017-10-30T16:02:07.743Z,97507.01
2017-10-30T16:04:33.814Z,97510.19
2017-10-30T16:06:59.957Z,97518.47
2017-10-30T16:09:26.078Z,97520.19
2017-10-30T16:11:52.177Z,97522.30
2017-10-30T16:14:18.419Z,97525.98
2017-10-30T16:16:44.542Z,97540.94
2017-10-30T16:19:10.702Z,97535.97
2017-10-30T16:21:36.803Z,97539.11
2017-10-30T16:24:02.934Z,97546.20
2017-10-30T16:26:29.055Z,97550.00
2017-10-30T16:28:55.085Z,97545.69
2017-10-30T16:31:21.154Z,97552.13
2017-10-30T16:33:47.255Z,97555.66
2017-10-30T16:36:13.366Z,97561.04
2017-10-30T16:38:39.453Z,97568.48
2017-10-30T16:41:05.544Z,97567.30
2017-10-30T16:43:31.618Z,97576.77
2017-10-30T16:45:57.750Z,97573.48
2017-10-30T16:48:23.860Z,97580.30
2017-10-30T16:50:49.967Z,97586.45
2017-10-30T16:53:16.082Z,97594.59
2017-10-30T16:55:42.141Z,97588.16
2017-10-30T16:58:08.287Z,97604.42
2017-10-30T17:00:34.362Z,97604.78
2017-10-30T17:03:00.779Z,97608.61
2017-10-30T17:05:26.863Z,97614.74
2017-10-30T17:07:52.938Z,97611.99
2017-10-30T17:10:19.048Z,97611.34
2017-10-30T17:12:45.134Z,97621.00
2017-10-30T17:15:11.265Z,97610.13
2017-10-30T17:17:37.410Z,97609.70
2017-10-30T17:20:03.558Z,97623.45
2017-10-30T17:22:29.666Z,97629.08
2017-10-30T17:24:55.738Z,97622.75
2017-10-30T17:27:22.155Z,97630.72
2017-10-30T17:29:48.230Z,97633.56
2017-10-30T17:32:14.337Z,97636.70
2017-10-30T17:34:40.494Z,97636.18
2017-10-30T17:37:06.589Z,97634.08
2017-10-30T17:39:32.741Z,97634.22
2017-10-30T17:41:58.989Z,97637.80
2017-10-30T17:44:25.491Z,97633.57
2017-10-30T17:46:51.552Z,97647.88
2017-10-30T17:49:17.635Z,97644.56
2017-10-30T17:51:43.727Z,97659.55
2017-10-30T17:54:09.799Z,97655.88
2017-10-30T17:56:36.246Z,97661.89
2017-10-30T17:59:02.353Z,97665.17
2017-10-30T18:01:28.427Z,97667.60
2017-10-30T18:03:54.554Z,97674.20
2017-10-30T18:06:20.663Z,97672.19
2017-10-30T18:08:47.202Z,97677.11
2017-10-30T18:11:13.293Z,97672.38
2017-10-30T18:13:39.386Z,97676.77
2017-10-30T18:16:05.467Z,97667.73
2017-10-30T18:18:31.586Z,97671.47
2017-10-30T18:20:58.019Z,97676.23
2017-10-30T18:23:24.114Z,97692.49
2017-10-30T18:25:50.187Z,97686.17
2017-10-30T18:28:16.327Z,97682.99
2017-10-30T18:30:42.425Z,97688.86
2017-10-30T18:33:08.883Z,97693.17
2017-10-30T18:35:34.993Z,97697.50
2017-10-30T18:38:01.100Z,97694.88
2017-10-30T18:40:27.214Z,97694.23
2017-10-30T18:42:53.247Z,97692.84
2017-10-30T18:45:19.725Z,97695.87
2017-10-30T18:47:45.868Z,97695.73
2017-10-30T18:50:12.000Z,97696.48
2017-10-30T18:52:38.060Z,97701.20
2017-10-30T18:55:04.361Z,97710.27
2017-10-30T18:57:30.856Z,97712.58
2017-10-30T18:59:56.942Z,97721.62
2017-10-30T19:02:23.139Z,97719.00
2017-10-30T19:04:49.243Z,97713.87
2017-10-30T19:07:15.346Z,97710.78
2017-10-30T19:09:41.810Z,97712.75
2017-10-30T19:12:07.929Z,97704.89
2017-10-30T19:14:34.024Z,97718.10
2017-10-30T19:17:00.166Z,97710.61
2017-10-30T19:19:26.247Z,97715.48
2017-10-30T19:21:52.752Z,97713.92
2017-10-30T19:24:18.851Z,97709.23
2017-10-30T19:26:44.947Z,97713.53
2017-10-30T19:29:11.039Z,97719.36
2017-10-30T19:31:37.164Z,97724.39
2017-10-30T19:34:03.611Z,97730.31
2017-10-30T19:36:29.736Z,97720.55
2017-10-30T19:38:55.931Z,97722.40
2017-10-30T19:41:22.080Z,97735.92
2017-10-30T19:43:49.166Z,97725.86
2017-10-30T19:46:16.624Z,97726.86
2017-10-30T19:48:42.771Z,97729.72
2017-10-30T19:51:08.895Z,97729.06
2017-10-30T19:53:35.028Z,97733.38
2017-10-30T19:56:01.194Z,97728.36
2017-10-30T19:58:27.772Z,97723.47
2017-10-30T20:00:53.854Z,97724.13
2017-10-30T20:03:20.041Z,97734.00
2017-10-30T20:05:52.164Z,97730.09
2017-10-30T20:08:24.537Z,97734.43
2017-10-30T20:10:57.303Z,97735.88
2017-10-30T20:13:23.442Z,97738.25
2017-10-30T20:15:49.660Z,97743.63
2017-10-30T20:18:15.841Z,97745.23
2017-10-30T20:20:42.007Z,97745.52
2017-10-30T20:23:08.572Z,97753.42
2017-10-30T20:25:34.770Z,97756.00
2017-10-30T20:28:00.893Z,97759.14
2017-10-30T20:30:27.171Z,97756.12
2017-10-30T20:32:53.335Z,97752.74
2017-10-30T20:35:19.854Z,97759.82
2017-10-30T20:37:46.012Z,97760.95
2017-10-30T20:40:12.118Z,97763.08
2017-10-30T20:42:38.261Z,97765.57
2017-10-30T20:45:04.382Z,97755.97
2017-10-30T20:47:30.867Z,97758.46
2017-10-30T20:49:57.020Z,97753.23
2017-10-30T20:52:23.255Z,97760.70
2017-10-30T20:54:50.272Z,97760.81
2017-10-30T20:57:16.457Z,97757.98
2017-10-30T20:59:42.941Z,97761.51
2017-10-30T21:02:09.113Z,97757.45
2017-10-30T21:04:35.250Z,97753.09
2017-10-30T21:07:01.428Z,97756.61
2017-10-30T21:09:27.578Z,97760.86
2017-10-30T21:11:54.106Z,97766.28
2017-10-30T21:14:20.186Z,97766.98
2017-10-30T21:16:46.284Z,97767.70
2017-10-30T21:19:12.798Z,97769.15
2017-10-30T21:21:38.860Z,97759.20
2017-10-30T21:24:05.006Z,97759.66
2017-10-30T21:26:31.179Z,97745.39
2017-10-30T21:28:57.345Z,97749.19
2017-10-30T21:31:23.803Z,97754.67
2017-10-30T21:33:49.946Z,97749.57
2017-10-30T21:36:16.055Z,97750.19
2017-10-30T21:38:42.166Z,97748.53
2017-10-30T21:41:08.255Z,97740.75
2017-10-30T21:43:34.730Z,97747.84
2017-10-30T21:46:00.906Z,97741.28
2017-10-30T21:48:26.951Z,97740.51
2017-10-30T21:50:53.023Z,97745.60
2017-10-30T21:53:19.171Z,97753.70
2017-10-30T21:55:45.659Z,97744.67
2017-10-30T21:58:11.732Z,97749.80
2017-10-30T22:00:37.895Z,97756.22
2017-10-30T22:03:04.009Z,97743.38
2017-10-30T22:05:30.084Z,97751.23
2017-10-30T22:07:56.557Z,97745.48
2017-10-30T22:10:22.784Z,97752.53
2017-10-30T22:12:48.898Z,97744.81
2017-10-30T22:15:15.035Z,97745.75
2017-10-30T22:17:46.022Z,97745.67
2017-10-30T22:20:12.650Z,97744.39
2017-10-30T22:22:38.748Z,97746.44
2017-10-30T22:25:04.843Z,97730.23
2017-10-30T22:27:31.035Z,97750.83
2017-10-30T22:29:57.150Z,97753.40
2017-10-30T22:32:23.686Z,97757.48
2017-10-30T22:34:49.779Z,97759.07
2017-10-30T22:37:15.827Z,97760.48
2017-10-30T22:39:41.927Z,97765.33
2017-10-30T22:42:08.043Z,97771.88
2017-10-30T22:44:34.518Z,97779.64
2017-10-30T22:47:00.583Z,97770.80
2017-10-30T22:49:26.684Z,97764.86
2017-10-30T22:51:52.827Z,97760.81
2017-10-30T22:54:18.907Z,97754.66
2017-10-30T22:56:45.366Z,97754.92
2017-10-30T22:59:11.490Z,97753.23
2017-10-30T23:01:37.562Z,97759.95
2017-10-30T23:04:03.719Z,97762.00
2017-10-30T23:06:29.792Z,97761.61
2017-10-30T23:08:56.219Z,97768.20
2017-10-30T23:11:22.310Z,97758.04
2017-10-30T23:13:48.392Z,97769.05
2017-10-30T23:16:14.538Z,97766.20
2017-10-30T23:18:40.668Z,97759.03
2017-10-30T23:21:07.163Z,97759.03
2017-10-30T23:23:33.230Z,97757.69
2017-10-30T23:25:59.308Z,97755.19
2017-10-30T23:28:25.437Z,97748.69
2017-10-30T23:30:51.519Z,97750.08
2017-10-30T23:33:17.594Z,97744.84
2017-10-30T23:35:43.714Z,97742.00
2017-10-30T23:38:09.803Z,97746.47
2017-10-30T23:40:35.831Z,97751.00
2017-10-30T23:43:01.958Z,97750.76
2017-10-30T23:45:28.038Z,97749.65
2017-10-30T23:47:54.143Z,97743.92
2017-10-30T23:50:20.239Z,97743.12
2017-10-30T23:52:46.316Z,97738.14
2017-10-30T23:55:12.410Z,97739.34
2017-10-30T23:57:38.866Z,97736.56
